Time;durP1;ratioP1;P1;durP2;ratioP2;P2;SDS_P1;SDS_P2;PMS_P1;PMS_P2;Temp;Humidity;BMP_temperature;BMP_pressure;BME280_temperature;BME280_humidity;BME280_pressure;Samples;Min_cycle;Max_cycle;Signal;HPM_P1;HPM_P2
2022/01/14 00:02:10;;;;;;;2.08;1.73;;;20.90;58.40;;;;;;5030824;28;20044;-70
2022/01/14 00:04:36;;;;;;;2.08;1.75;;;20.90;58.40;;;;;;5030739;28;20037;-70
2022/01/14 00:07:02;;;;;;;1.50;1.38;;;20.90;58.40;;;;;;5031047;28;20092;-70
2022/01/14 00:09:28;;;;;;;1.90;1.70;;;21.00;58.40;;;;;;5031872;28;20483;-70
2022/01/14 00:11:57;;;;;;;1.98;1.50;;;20.90;58.40;;;;;;5051682;28;20029;-70
2022/01/14 00:14:36;;;;;;;1.70;1.60;;;20.90;58.50;;;;;;5018557;28;20029;-70
2022/01/14 00:17:04;;;;;;;1.70;1.60;;;20.90;58.50;;;;;;5050829;28;20017;-70
2022/01/14 00:19:29;;;;;;;1.40;1.30;;;20.90;58.50;;;;;;5052008;28;20029;-70
2022/01/14 00:21:55;;;;;;;1.48;1.33;;;20.90;58.50;;;;;;5051814;28;20021;-70
2022/01/14 00:32:19;;;;;;;2.00;1.80;;;20.90;58.50;;;;;;5052000;28;20052;-70
2022/01/14 00:34:44;;;;;;;3.03;1.48;;;20.90;58.60;;;;;;5050768;28;20049;-70
2022/01/14 00:37:10;;;;;;;2.08;1.65;;;20.90;58.60;;;;;;5051930;28;20068;-70
2022/01/14 00:39:36;;;;;;;1.52;1.40;;;20.90;58.60;;;;;;5051143;28;20025;-70
2022/01/14 00:42:02;;;;;;;1.83;1.52;;;20.90;58.60;;;;;;5050574;28;20452;-71
2022/01/14 00:44:27;;;;;;;3.13;2.00;;;20.90;58.70;;;;;;5051188;28;20491;-71
2022/01/14 00:46:53;;;;;;;1.98;1.40;;;20.90;58.60;;;;;;5054148;28;20060;-71
2022/01/14 00:49:20;;;;;;;2.38;1.60;;;20.90;58.60;;;;;;5054113;28;20078;-70
2022/01/14 00:51:46;;;;;;;1.67;1.52;;;20.90;58.60;;;;;;5054122;28;20452;-70
2022/01/14 00:54:11;;;;;;;1.98;1.73;;;20.90;58.60;;;;;;5037626;28;20025;-70
2022/01/14 00:59:16;;;;;;;1.80;1.50;;;20.90;58.60;;;;;;5035250;28;20025;-70
2022/01/14 01:01:45;;;;;;;2.05;1.40;;;20.90;58.70;;;;;;5018502;28;20075;-70
2022/01/14 01:04:12;;;;;;;1.70;1.60;;;20.90;58.60;;;;;;5035120;28;20028;-70
2022/01/14 01:06:38;;;;;;;1.40;1.30;;;20.90;58.70;;;;;;5033669;28;20400;-70
2022/01/14 01:09:07;;;;;;;1.73;1.50;;;20.90;58.70;;;;;;5033258;28;20028;-70
2022/01/14 01:11:36;;;;;;;1.55;1.45;;;20.90;58.70;;;;;;5051785;28;20521;-70
2022/01/14 01:14:09;;;;;;;1.40;1.27;;;20.90;58.70;;;;;;5053920;28;20013;-70
2022/01/14 01:16:35;;;;;;;2.03;1.52;;;20.90;58.70;;;;;;5053598;28;20031;-71
2022/01/14 01:19:01;;;;;;;3.40;1.38;;;20.90;58.70;;;;;;5053590;28;20021;-70
2022/01/14 01:21:26;;;;;;;2.30;1.80;;;20.90;58.70;;;;;;5054617;28;20029;-70
2022/01/14 01:23:52;;;;;;;2.15;1.70;;;20.90;58.70;;;;;;5054442;28;20032;-70
2022/01/14 01:26:29;;;;;;;3.75;1.48;;;20.90;58.70;;;;;;5053285;28;20407;-71
2022/01/14 01:31:35;;;;;;;2.72;1.77;;;20.90;58.70;;;;;;5036727;28;20025;-70
2022/01/14 01:34:09;;;;;;;1.30;1.20;;;20.90;58.90;;;;;;5053620;28;20090;-70
2022/01/14 01:36:35;;;;;;;1.45;1.35;;;20.90;58.80;;;;;;5054398;28;20028;-70
2022/01/14 01:39:01;;;;;;;1.30;1.20;;;20.90;58.80;;;;;;5019800;28;20452;-70
2022/01/14 01:41:27;;;;;;;2.17;1.15;;;20.90;58.80;;;;;;5053095;28;20108;-70
2022/01/14 01:43:54;;;;;;;1.20;1.10;;;20.90;58.80;;;;;;5053368;28;20194;-70
2022/01/14 01:46:20;;;;;;;1.65;1.30;;;20.90;58.90;;;;;;5036610;28;20395;-71
2022/01/14 01:48:47;;;;;;;1.52;1.33;;;20.90;58.80;;;;;;5053136;28;20029;-70
2022/01/14 01:51:13;;;;;;;1.92;1.40;;;20.90;58.90;;;;;;5053085;28;20017;-70
2022/01/14 01:53:38;;;;;;;1.50;1.40;;;20.90;58.90;;;;;;5039569;28;20049;-70
2022/01/14 01:56:04;;;;;;;1.30;1.20;;;20.90;58.90;;;;;;5033689;28;20075;-70
2022/01/14 01:58:30;;;;;;;1.35;1.25;;;20.90;58.90;;;;;;5032956;28;20033;-70
2022/01/14 02:00:56;;;;;;;1.48;1.38;;;20.90;58.90;;;;;;5034136;28;20021;-70
2022/01/14 02:03:22;;;;;;;1.40;1.30;;;20.90;58.90;;;;;;5032719;28;20025;-71
2022/01/14 02:05:48;;;;;;;2.15;1.45;;;20.90;58.90;;;;;;5032909;28;20026;-70
2022/01/14 02:08:13;;;;;;;2.00;1.52;;;20.90;58.90;;;;;;5032351;28;20036;-70
2022/01/14 02:10:39;;;;;;;1.40;1.30;;;20.90;58.90;;;;;;5044606;28;20539;-70
2022/01/14 02:13:06;;;;;;;1.20;1.20;;;20.90;58.90;;;;;;5052800;28;20029;-70
2022/01/14 02:15:47;;;;;;;1.30;1.20;;;20.90;58.90;;;;;;5053809;28;20025;-70
2022/01/14 02:18:28;;;;;;;1.20;1.10;;;20.90;58.90;;;;;;5053594;28;20036;-70
2022/01/14 02:23:43;;;;;;;2.03;1.40;;;20.90;58.90;;;;;;5038794;28;20098;-70
2022/01/14 02:26:09;;;;;;;1.58;1.48;;;20.90;59.00;;;;;;5053729;28;20110;-71
2022/01/14 02:28:35;;;;;;;1.17;1.08;;;20.90;59.00;;;;;;5053362;28;20076;-70
2022/01/14 02:31:00;;;;;;;1.50;1.20;;;20.90;59.00;;;;;;5052332;28;20449;-70
2022/01/14 02:33:26;;;;;;;2.13;1.58;;;20.90;59.00;;;;;;5053421;28;20526;-70
2022/01/14 02:35:52;;;;;;;1.50;1.40;;;20.90;59.00;;;;;;5051734;28;20104;-70
2022/01/14 02:38:18;;;;;;;2.25;1.30;;;20.90;59.00;;;;;;5053244;28;20758;-70
2022/01/14 02:40:43;;;;;;;1.10;1.10;;;20.90;59.00;;;;;;5035345;28;20013;-70
2022/01/14 02:43:15;;;;;;;1.33;1.23;;;20.90;59.00;;;;;;5052195;28;20510;-70
2022/01/14 02:45:42;;;;;;;1.38;1.27;;;20.90;59.00;;;;;;5051936;28;20032;-70
2022/01/14 02:48:08;;;;;;;1.90;1.38;;;20.90;59.00;;;;;;5051930;28;20024;-70
2022/01/14 02:50:43;;;;;;;1.42;1.10;;;20.90;59.10;;;;;;5018476;28;20391;-70
2022/01/14 02:55:58;;;;;;;1.25;1.15;;;20.90;59.00;;;;;;5032120;28;20032;-70
2022/01/14 02:58:25;;;;;;;1.08;1.00;;;20.90;59.10;;;;;;5032942;28;20018;-70
2022/01/14 03:00:51;;;;;;;2.58;1.25;;;20.90;59.10;;;;;;5031559;28;20022;-70
2022/01/14 03:03:17;;;;;;;1.95;1.10;;;20.90;59.00;;;;;;5031665;28;20376;-70
2022/01/14 03:05:43;;;;;;;1.63;1.35;;;20.90;59.00;;;;;;5031450;28;20017;-70
2022/01/14 03:08:08;;;;;;;1.10;1.00;;;20.90;59.00;;;;;;5030768;28;20014;-70
2022/01/14 03:10:34;;;;;;;0.90;0.90;;;20.90;59.00;;;;;;5025105;28;20479;-70
2022/01/14 03:12:59;;;;;;;1.00;1.00;;;20.90;59.00;;;;;;5051254;28;20017;-70
2022/01/14 03:15:25;;;;;;;1.17;1.08;;;20.90;59.00;;;;;;5052494;28;20035;-70
2022/01/14 03:17:51;;;;;;;1.20;1.10;;;20.90;59.00;;;;;;5051338;28;20040;-70
2022/01/14 03:23:15;;;;;;;1.20;1.00;;;20.90;59.00;;;;;;5070342;28;20028;-70
2022/01/14 03:25:48;;;;;;;1.30;1.20;;;20.90;59.10;;;;;;5037117;28;20024;-70
2022/01/14 03:28:23;;;;;;;1.15;1.10;;;20.90;59.10;;;;;;5054457;28;20045;-70
2022/01/14 03:30:51;;;;;;;1.10;1.00;;;20.90;59.10;;;;;;5070154;28;20029;-70
2022/01/14 03:33:17;;;;;;;1.00;1.00;;;20.90;59.10;;;;;;5053507;28;20025;-70
2022/01/14 03:35:42;;;;;;;0.95;0.95;;;20.90;59.10;;;;;;5053190;28;20043;-70
2022/01/14 03:38:08;;;;;;;1.17;1.08;;;20.90;59.00;;;;;;5053397;28;20070;-70
2022/01/14 03:40:34;;;;;;;0.95;0.95;;;20.90;59.10;;;;;;5053505;28;20036;-70
2022/01/14 03:42:59;;;;;;;0.98;0.88;;;20.90;59.10;;;;;;5053305;28;20059;-70
2022/01/14 03:45:25;;;;;;;1.13;1.10;;;20.90;59.00;;;;;;5053401;28;20037;-70
2022/01/14 03:47:51;;;;;;;0.93;0.93;;;20.90;59.00;;;;;;5053301;28;20053;-70
2022/01/14 03:50:16;;;;;;;1.02;1.00;;;20.90;59.10;;;;;;5036279;28;20040;-70
2022/01/14 03:52:42;;;;;;;1.00;1.00;;;20.90;59.10;;;;;;5031392;28;20080;-70
2022/01/14 03:55:08;;;;;;;1.30;1.20;;;20.90;59.10;;;;;;5050138;28;20071;-70
2022/01/14 03:57:34;;;;;;;1.20;1.10;;;20.90;59.10;;;;;;5050014;28;20127;-70
2022/01/14 03:59:59;;;;;;;1.40;1.30;;;20.90;59.10;;;;;;5032316;28;20084;-70
2022/01/14 04:02:25;;;;;;;1.70;1.10;;;20.90;60.10;;;;;;5030891;28;20029;-70
2022/01/14 04:04:51;;;;;;;1.65;0.98;;;20.90;59.10;;;;;;5014018;28;20029;-70
2022/01/14 04:07:16;;;;;;;1.40;0.90;;;20.90;59.10;;;;;;5032213;28;20018;-70
2022/01/14 04:09:42;;;;;;;0.88;0.88;;;20.90;59.10;;;;;;5017153;28;20040;-70
2022/01/14 04:12:15;;;;;;;0.90;0.90;;;20.90;59.10;;;;;;5050651;28;20079;-70
2022/01/14 04:17:06;;;;;;;1.20;1.10;;;20.90;59.10;;;;;;5050460;28;20028;-70
2022/01/14 04:19:32;;;;;;;1.02;1.02;;;20.90;59.10;;;;;;5034965;28;20548;-70
2022/01/14 04:21:57;;;;;;;1.00;1.00;;;20.90;59.10;;;;;;5055701;28;20513;-70
2022/01/14 04:24:23;;;;;;;1.00;1.00;;;20.90;59.10;;;;;;5056023;28;20498;-70
2022/01/14 04:26:49;;;;;;;1.35;1.10;;;20.90;59.20;;;;;;5037885;28;20419;-70
2022/01/14 04:29:14;;;;;;;1.38;1.20;;;20.90;59.10;;;;;;5055751;28;20033;-70
2022/01/14 04:31:40;;;;;;;1.23;0.90;;;20.90;59.20;;;;;;5037494;28;20025;-70
2022/01/14 04:34:06;;;;;;;1.30;1.20;;;20.80;59.10;;;;;;5054348;28;20025;-70
2022/01/14 04:36:32;;;;;;;1.73;1.05;;;20.80;59.10;;;;;;5055685;28;20067;-70
2022/01/14 04:38:58;;;;;;;0.90;0.90;;;20.90;59.10;;;;;;5054238;28;20033;-70
2022/01/14 04:41:24;;;;;;;1.30;1.10;;;20.80;59.10;;;;;;5054317;28;20028;-70
2022/01/14 04:43:49;;;;;;;1.02;1.02;;;20.80;59.10;;;;;;5055304;28;20032;-70
2022/01/14 04:48:52;;;;;;;1.05;0.95;;;20.80;59.10;;;;;;5039294;28;20052;-70
2022/01/14 04:51:20;;;;;;;1.20;1.00;;;20.80;59.20;;;;;;5037593;28;20057;-70
2022/01/14 04:53:46;;;;;;;0.93;0.93;;;20.80;59.20;;;;;;5041193;28;20033;-70
2022/01/14 04:56:11;;;;;;;1.00;1.00;;;20.80;59.20;;;;;;5034273;28;20034;-70
2022/01/14 04:58:37;;;;;;;0.90;0.90;;;20.80;59.10;;;;;;5035131;28;20025;-70
2022/01/14 05:01:03;;;;;;;0.95;0.93;;;20.80;59.20;;;;;;5033690;28;20025;-70
2022/01/14 05:03:30;;;;;;;2.05;1.05;;;20.80;59.20;;;;;;5033750;28;20025;-70
2022/01/14 05:05:58;;;;;;;1.20;1.10;;;20.80;59.20;;;;;;5035014;28;20096;-70
2022/01/14 05:08:35;;;;;;;2.05;1.00;;;20.80;59.20;;;;;;5034059;28;20492;-70
2022/01/14 05:11:15;;;;;;;1.17;1.08;;;20.80;59.20;;;;;;5048720;28;20499;-70
2022/01/14 05:13:40;;;;;;;0.80;0.80;;;20.80;59.20;;;;;;5053932;28;20143;-70
2022/01/14 05:16:06;;;;;;;0.98;0.93;;;20.80;59.20;;;;;;5053274;28;20155;-70
2022/01/14 05:18:32;;;;;;;1.10;0.90;;;20.80;59.20;;;;;;5054768;28;20033;-70
2022/01/14 05:20:57;;;;;;;1.20;1.10;;;20.80;59.20;;;;;;5036924;28;20028;-70
2022/01/14 05:23:24;;;;;;;0.90;0.90;;;20.80;60.20;;;;;;5054744;28;20020;-70
2022/01/14 05:25:49;;;;;;;0.90;0.90;;;20.80;59.20;;;;;;5053507;28;20137;-70
2022/01/14 05:28:15;;;;;;;1.02;0.93;;;20.80;59.30;;;;;;5036554;28;20131;-70
2022/01/14 05:30:41;;;;;;;0.85;0.80;;;20.80;59.20;;;;;;5052559;28;20021;-70
2022/01/14 05:33:08;;;;;;;1.35;0.90;;;20.80;59.20;;;;;;5035544;28;20041;-70
2022/01/14 05:35:33;;;;;;;1.20;1.10;;;20.80;59.20;;;;;;5051323;28;20029;-70
2022/01/14 05:37:59;;;;;;;1.00;1.00;;;20.80;59.20;;;;;;5052133;28;20024;-70
2022/01/14 05:40:27;;;;;;;1.00;0.90;;;20.80;59.20;;;;;;5052215;28;20024;-70
2022/01/14 05:42:52;;;;;;;0.77;0.77;;;20.80;60.20;;;;;;5051732;28;20024;-70
2022/01/14 05:45:18;;;;;;;0.93;0.90;;;20.80;59.20;;;;;;5035714;28;20029;-70
2022/01/14 05:47:44;;;;;;;1.00;1.00;;;20.80;59.20;;;;;;5052833;28;20045;-70
2022/01/14 05:50:20;;;;;;;4.65;0.90;;;20.80;59.30;;;;;;5052951;28;20360;-70
2022/01/14 05:52:46;;;;;;;2.10;0.90;;;20.80;59.20;;;;;;5047110;28;20029;-70
2022/01/14 05:55:12;;;;;;;1.25;0.88;;;20.80;59.20;;;;;;5033044;28;20099;-70
2022/01/14 05:57:38;;;;;;;1.10;1.00;;;20.80;59.20;;;;;;5033034;28;20021;-70
2022/01/14 06:00:11;;;;;;;1.02;0.90;;;20.80;59.20;;;;;;5033553;28;20051;-69
2022/01/14 06:02:37;;;;;;;1.58;1.00;;;20.80;59.20;;;;;;5047117;28;20454;-69
2022/01/14 06:05:03;;;;;;;1.00;1.00;;;20.80;60.20;;;;;;5041712;28;20017;-70
2022/01/14 06:07:28;;;;;;;1.05;1.00;;;20.80;59.30;;;;;;5040458;28;20041;-70
2022/01/14 06:09:54;;;;;;;1.30;1.20;;;20.80;59.30;;;;;;5045405;28;20022;-70
2022/01/14 06:12:20;;;;;;;1.13;0.80;;;20.80;59.20;;;;;;5049864;28;20086;-70
2022/01/14 06:14:45;;;;;;;1.23;0.88;;;20.80;59.20;;;;;;5041319;28;20029;-70
2022/01/14 06:17:11;;;;;;;0.93;0.90;;;20.70;59.20;;;;;;5025273;28;20038;-70
2022/01/14 06:19:37;;;;;;;1.17;0.90;;;20.70;59.20;;;;;;5048074;28;20028;-69
2022/01/14 06:22:03;;;;;;;0.70;0.70;;;20.70;59.20;;;;;;5037192;28;20469;-70
2022/01/14 06:24:28;;;;;;;0.90;0.90;;;20.70;59.10;;;;;;5048117;28;20087;-70
2022/01/14 06:26:54;;;;;;;0.77;0.77;;;20.80;59.20;;;;;;5040709;28;20049;-69
2022/01/14 06:29:20;;;;;;;1.60;0.70;;;20.70;59.20;;;;;;5040263;28;20033;-70
2022/01/14 06:31:45;;;;;;;1.92;0.88;;;20.70;59.20;;;;;;5047963;28;20029;-70
2022/01/14 06:34:12;;;;;;;1.20;1.10;;;20.70;59.20;;;;;;5036789;28;20071;-69
2022/01/14 06:36:37;;;;;;;1.80;0.90;;;20.80;59.20;;;;;;5046781;28;20025;-70
2022/01/14 06:39:03;;;;;;;0.80;0.70;;;20.80;59.20;;;;;;5025099;28;20029;-69
2022/01/14 06:41:28;;;;;;;0.93;0.80;;;20.70;59.20;;;;;;5040625;28;20484;-70
2022/01/14 06:43:54;;;;;;;0.77;0.77;;;20.70;59.20;;;;;;5049222;28;20491;-70
2022/01/14 06:46:20;;;;;;;0.80;0.80;;;20.70;59.20;;;;;;5032292;28;20021;-70
2022/01/14 06:48:45;;;;;;;1.65;0.98;;;20.70;59.20;;;;;;5032565;28;20474;-69
2022/01/14 06:51:15;;;;;;;0.80;0.80;;;20.70;59.20;;;;;;5041121;28;20125;-70
2022/01/14 06:53:41;;;;;;;1.20;1.10;;;20.70;59.20;;;;;;5033067;28;20025;-69
2022/01/14 06:56:07;;;;;;;0.98;0.90;;;20.70;59.20;;;;;;5048177;28;20025;-69
2022/01/14 06:58:33;;;;;;;1.00;1.00;;;20.70;59.20;;;;;;5037760;28;20032;-70
2022/01/14 07:00:58;;;;;;;0.80;0.80;;;20.70;59.20;;;;;;5043761;28;20102;-70
2022/01/14 07:03:24;;;;;;;1.55;0.70;;;20.70;59.30;;;;;;5043629;28;20028;-70
2022/01/14 07:05:50;;;;;;;0.85;0.85;;;20.70;59.20;;;;;;5037757;28;20013;-70
2022/01/14 07:08:15;;;;;;;0.80;0.80;;;20.80;59.30;;;;;;5049252;28;20501;-70
2022/01/14 07:10:41;;;;;;;1.00;0.90;;;20.80;59.30;;;;;;5042303;28;20486;-69
2022/01/14 07:13:07;;;;;;;0.80;0.80;;;20.70;59.20;;;;;;5043581;28;20399;-70
2022/01/14 07:15:32;;;;;;;3.55;1.00;;;20.70;59.20;;;;;;5044222;28;20048;-72
2022/01/14 07:17:58;;;;;;;1.23;1.13;;;20.70;59.20;;;;;;5051920;28;20395;-72
2022/01/14 07:20:24;;;;;;;2.15;1.30;;;20.80;59.00;;;;;;5052658;28;20025;-72
2022/01/14 07:22:49;;;;;;;1.00;1.00;;;20.70;58.60;;;;;;5036681;28;20049;-72
2022/01/14 07:25:15;;;;;;;1.35;1.25;;;20.60;58.50;;;;;;5047925;28;20074;-71
2022/01/14 07:27:41;;;;;;;1.45;1.20;;;20.60;58.50;;;;;;5019993;28;20102;-71
2022/01/14 07:30:07;;;;;;;1.65;1.30;;;20.60;58.40;;;;;;5025941;28;20029;-72
2022/01/14 07:32:33;;;;;;;1.33;1.30;;;20.50;58.40;;;;;;5027327;28;20108;-72
2022/01/14 07:34:59;;;;;;;1.33;1.20;;;20.50;58.40;;;;;;5035608;28;20108;-71
2022/01/14 07:37:24;;;;;;;1.50;1.20;;;20.50;58.30;;;;;;5042439;28;20075;-72
2022/01/14 07:39:50;;;;;;;1.60;1.20;;;20.50;58.20;;;;;;5036574;28;20025;-71
2022/01/14 07:42:16;;;;;;;1.83;1.55;;;20.40;58.20;;;;;;5047089;28;20021;-72
2022/01/14 07:44:42;;;;;;;1.25;1.10;;;20.40;58.20;;;;;;5036521;28;20084;-68
2022/01/14 07:47:07;;;;;;;1.40;1.30;;;20.40;58.10;;;;;;5042533;28;20092;-67
2022/01/14 07:49:33;;;;;;;1.30;1.20;;;20.40;58.10;;;;;;5031660;28;20080;-67
2022/01/14 07:51:58;;;;;;;1.85;1.45;;;20.40;58.10;;;;;;5031078;28;20451;-67
2022/01/14 07:54:24;;;;;;;2.22;1.25;;;20.30;58.00;;;;;;5030047;28;20488;-67
2022/01/14 07:56:52;;;;;;;3.47;2.00;;;20.40;58.10;;;;;;5030645;28;20104;-67
2022/01/14 07:59:19;;;;;;;3.92;1.80;;;20.30;58.00;;;;;;5030575;28;20025;-67
2022/01/14 08:01:48;;;;;;;3.42;1.65;;;20.30;58.00;;;;;;5014542;28;20024;-67
2022/01/14 08:04:15;;;;;;;3.30;1.80;;;20.30;58.00;;;;;;5014730;28;20021;-67
2022/01/14 08:06:46;;;;;;;5.43;1.92;;;20.30;58.00;;;;;;5031006;28;20025;-67
2022/01/14 08:09:12;;;;;;;3.30;1.75;;;20.30;58.00;;;;;;5038042;28;20029;-67
2022/01/14 08:11:38;;;;;;;4.60;2.00;;;20.30;57.90;;;;;;5045527;28;20025;-67
2022/01/14 08:14:04;;;;;;;3.60;1.95;;;20.30;57.90;;;;;;5032414;28;20527;-68
2022/01/14 08:16:29;;;;;;;4.28;1.75;;;20.30;57.90;;;;;;5040643;28;20021;-68
2022/01/14 08:18:55;;;;;;;2.85;1.83;;;20.30;57.90;;;;;;5051844;28;20067;-67
2022/01/14 08:21:20;;;;;;;5.93;2.00;;;20.30;57.80;;;;;;5051666;28;20021;-67
2022/01/14 08:23:46;;;;;;;4.20;2.00;;;20.30;57.80;;;;;;5050431;28;20052;-67
2022/01/14 08:26:12;;;;;;;4.00;1.90;;;20.30;57.80;;;;;;5032146;28;20022;-67
2022/01/14 08:28:37;;;;;;;3.13;1.83;;;20.30;57.80;;;;;;5030690;28;20036;-67
2022/01/14 08:31:03;;;;;;;4.68;1.75;;;20.30;57.80;;;;;;5030861;28;20026;-67
2022/01/14 08:33:29;;;;;;;3.13;2.05;;;20.30;57.80;;;;;;5031663;28;20030;-67
2022/01/14 08:35:54;;;;;;;5.20;2.15;;;20.20;57.70;;;;;;5030786;28;20022;-68
2022/01/14 08:38:21;;;;;;;2.95;1.90;;;20.30;57.80;;;;;;5030260;28;20442;-67
2022/01/14 08:40:47;;;;;;;3.50;1.75;;;20.20;57.70;;;;;;5030682;28;20030;-67
2022/01/14 08:43:12;;;;;;;3.80;1.83;;;20.20;57.70;;;;;;5049514;28;20472;-67
2022/01/14 08:45:38;;;;;;;5.43;1.92;;;20.20;57.70;;;;;;5050393;28;20074;-67
2022/01/14 08:48:04;;;;;;;3.70;2.08;;;20.20;57.70;;;;;;5050406;28;20025;-67
2022/01/14 08:50:32;;;;;;;2.13;1.58;;;20.20;57.70;;;;;;5050685;28;20518;-67
2022/01/14 08:52:59;;;;;;;3.85;1.77;;;20.20;57.70;;;;;;5026548;28;20030;-67
2022/01/14 08:55:24;;;;;;;3.00;1.60;;;20.20;57.70;;;;;;5030404;28;20500;-67
2022/01/14 08:57:50;;;;;;;2.97;1.90;;;20.20;57.60;;;;;;5030679;28;20040;-67
2022/01/14 09:00:17;;;;;;;2.33;1.60;;;20.20;57.60;;;;;;5030492;28;20136;-67
2022/01/14 09:02:42;;;;;;;5.00;2.05;;;20.20;57.60;;;;;;5030437;28;20025;-67
2022/01/14 09:05:08;;;;;;;3.90;1.92;;;20.20;57.60;;;;;;5030424;28;20060;-67
2022/01/14 09:07:34;;;;;;;3.63;2.15;;;20.20;57.60;;;;;;5032263;28;20030;-67
2022/01/14 09:10:00;;;;;;;4.07;2.05;;;20.20;57.70;;;;;;5033861;28;20395;-67
2022/01/14 09:12:25;;;;;;;5.18;1.77;;;20.20;57.60;;;;;;5033744;28;20036;-67
2022/01/14 09:14:51;;;;;;;3.40;1.70;;;20.20;57.60;;;;;;5033736;28;20025;-68
2022/01/14 09:17:17;;;;;;;2.55;1.77;;;20.20;57.60;;;;;;5053466;28;20557;-67
2022/01/14 09:19:43;;;;;;;2.88;2.25;;;20.20;57.60;;;;;;5054815;28;20057;-67
2022/01/14 09:22:09;;;;;;;4.05;2.20;;;20.20;57.60;;;;;;5036880;28;20036;-67
2022/01/14 09:24:35;;;;;;;3.38;1.77;;;20.20;57.60;;;;;;5036926;28;20072;-67
2022/01/14 09:27:00;;;;;;;2.78;1.70;;;20.20;57.50;;;;;;5054354;28;20098;-67
2022/01/14 09:29:26;;;;;;;3.80;2.13;;;20.20;57.50;;;;;;5054475;28;20082;-67
2022/01/14 09:31:52;;;;;;;2.75;2.20;;;20.20;57.50;;;;;;5054658;28;20086;-67
2022/01/14 09:34:17;;;;;;;2.97;2.03;;;20.20;57.50;;;;;;5053417;28;20029;-67
2022/01/14 09:36:43;;;;;;;3.15;1.88;;;20.20;57.50;;;;;;5054184;28;20036;-67
2022/01/14 09:39:09;;;;;;;3.53;1.80;;;20.10;57.40;;;;;;5054408;28;20027;-67
2022/01/14 09:41:34;;;;;;;4.55;2.17;;;20.20;57.40;;;;;;5053083;28;20029;-67
2022/01/14 09:44:01;;;;;;;3.00;1.70;;;20.10;57.40;;;;;;5054483;28;20024;-67
2022/01/14 09:46:27;;;;;;;2.40;1.80;;;20.10;57.40;;;;;;5054216;28;20059;-67
2022/01/14 09:48:52;;;;;;;2.40;1.90;;;20.10;57.30;;;;;;5052973;28;20053;-67
2022/01/14 09:51:18;;;;;;;3.00;1.63;;;20.10;57.40;;;;;;5052733;28;20593;-67
2022/01/14 09:53:44;;;;;;;2.75;1.73;;;20.10;57.30;;;;;;5023068;28;20029;-67
2022/01/14 09:56:12;;;;;;;2.78;1.77;;;20.20;57.60;;;;;;5033208;28;20501;-67
2022/01/14 09:58:41;;;;;;;2.13;1.77;;;20.10;57.30;;;;;;5033963;28;20125;-67
2022/01/14 10:01:11;;;;;;;2.10;1.60;;;20.10;57.30;;;;;;5034165;28;20376;-68
2022/01/14 10:03:53;;;;;;;2.85;1.88;;;20.10;57.30;;;;;;5033811;28;20021;-67
2022/01/14 10:06:38;;;;;;;3.67;1.75;;;20.20;57.30;;;;;;5032776;28;20029;-67
2022/01/14 10:09:08;;;;;;;3.22;1.80;;;20.10;57.10;;;;;;5034230;28;20017;-67
2022/01/14 10:11:35;;;;;;;3.00;1.70;;;20.10;57.30;;;;;;5033904;28;20029;-67
2022/01/14 10:14:12;;;;;;;2.60;1.60;;;20.10;57.30;;;;;;5032727;28;20484;-68
2022/01/14 10:16:41;;;;;;;2.17;1.88;;;20.10;57.20;;;;;;5045885;28;20048;-67
2022/01/14 10:19:23;;;;;;;2.00;1.90;;;20.10;57.20;;;;;;5036107;28;20024;-67
2022/01/14 10:21:49;;;;;;;1.85;1.75;;;20.10;57.00;;;;;;5052377;28;20033;-67
2022/01/14 10:24:15;;;;;;;1.90;1.70;;;20.10;57.20;;;;;;5053706;28;20047;-67
2022/01/14 10:26:49;;;;;;;2.95;2.10;;;20.10;57.20;;;;;;5035541;28;20062;-67
2022/01/14 10:29:15;;;;;;;2.30;1.90;;;20.10;57.10;;;;;;5053595;28;20025;-67
2022/01/14 10:31:42;;;;;;;1.85;1.70;;;20.10;57.10;;;;;;5035702;28;20033;-67
2022/01/14 10:34:15;;;;;;;2.25;1.80;;;20.10;57.10;;;;;;5035664;28;20062;-67
2022/01/14 10:36:44;;;;;;;2.30;2.10;;;20.10;57.00;;;;;;5052067;28;20032;-67
2022/01/14 10:39:23;;;;;;;2.15;1.90;;;20.10;57.00;;;;;;5052142;28;20025;-67
2022/01/14 10:41:49;;;;;;;2.28;2.00;;;20.10;56.90;;;;;;5053283;28;20546;-67
2022/01/14 10:44:28;;;;;;;2.25;1.88;;;20.10;57.00;;;;;;5052027;28;20092;-67
2022/01/14 10:47:29;;;;;;;2.10;1.80;;;20.10;56.90;;;;;;5052080;28;20017;-67
2022/01/14 10:49:58;;;;;;;1.67;1.58;;;20.10;56.70;;;;;;5033983;28;20399;-67
2022/01/14 10:52:24;;;;;;;2.00;1.58;;;20.00;57.10;;;;;;5048181;28;20033;-67
2022/01/14 10:54:54;;;;;;;1.75;1.50;;;20.00;57.00;;;;;;5014575;28;20030;-68
2022/01/14 10:57:27;;;;;;;2.58;1.73;;;20.10;57.00;;;;;;5015035;28;20037;-67
2022/01/14 10:59:55;;;;;;;2.20;1.80;;;20.10;56.90;;;;;;5030868;28;20036;-67
2022/01/14 11:02:31;;;;;;;3.28;1.98;;;20.10;56.90;;;;;;5030975;28;20022;-67
2022/01/14 11:05:18;;;;;;;1.77;1.67;;;20.10;56.80;;;;;;5014195;28;20101;-67
2022/01/14 11:07:45;;;;;;;1.92;1.83;;;20.10;56.70;;;;;;5030783;28;20060;-67
2022/01/14 11:10:23;;;;;;;2.08;1.95;;;20.00;56.90;;;;;;5014343;28;20040;-67
2022/01/14 11:12:49;;;;;;;1.98;1.77;;;20.10;56.80;;;;;;5014160;28;20491;-68
2022/01/14 11:15:15;;;;;;;2.92;1.67;;;20.10;56.80;;;;;;5015918;28;20061;-68
2022/01/14 11:17:42;;;;;;;2.30;2.10;;;20.00;56.80;;;;;;5017057;28;20507;-67
2022/01/14 11:20:10;;;;;;;2.28;1.85;;;20.00;56.70;;;;;;5033911;28;20029;-67
2022/01/14 11:25:20;;;;;;;2.72;1.73;;;20.10;56.80;;;;;;5032592;28;20029;-68
2022/01/14 11:27:54;;;;;;;2.53;1.85;;;20.00;56.70;;;;;;5031143;28;20049;-67
2022/01/14 11:30:19;;;;;;;2.13;1.60;;;20.10;56.70;;;;;;5014377;28;20029;-67
2022/01/14 11:32:55;;;;;;;2.28;1.65;;;20.00;56.70;;;;;;5032129;28;20026;-67
2022/01/14 11:35:25;;;;;;;2.47;1.77;;;20.00;56.60;;;;;;5030631;28;20056;-67
2022/01/14 11:37:51;;;;;;;1.90;1.70;;;20.00;56.60;;;;;;5026416;28;20443;-67
2022/01/14 11:40:16;;;;;;;1.52;1.42;;;20.00;56.60;;;;;;5020520;28;20029;-67
2022/01/14 11:42:43;;;;;;;2.17;1.80;;;20.00;56.60;;;;;;5050820;28;20028;-67
2022/01/14 11:45:11;;;;;;;1.70;1.60;;;20.00;56.60;;;;;;5041577;28;20021;-67
2022/01/14 11:47:39;;;;;;;2.15;1.70;;;20.00;56.60;;;;;;5031817;28;20044;-67
2022/01/14 11:50:22;;;;;;;1.80;1.67;;;20.00;56.50;;;;;;5032319;28;20039;-67
2022/01/14 11:52:49;;;;;;;1.85;1.73;;;20.10;56.40;;;;;;5035532;28;20475;-67
2022/01/14 11:55:23;;;;;;;1.70;1.52;;;20.00;56.50;;;;;;5034540;28;20457;-67
2022/01/14 11:57:52;;;;;;;1.75;1.65;;;20.10;56.50;;;;;;5052086;28;20033;-67
2022/01/14 12:00:27;;;;;;;1.70;1.60;;;20.00;56.50;;;;;;5052047;28;20036;-67
2022/01/14 12:03:13;;;;;;;2.20;2.00;;;20.00;56.40;;;;;;5051643;28;20527;-67
2022/01/14 12:05:50;;;;;;;1.90;1.80;;;20.00;56.40;;;;;;5051880;28;20013;-67
2022/01/14 12:08:20;;;;;;;1.70;1.60;;;20.00;56.50;;;;;;5051043;28;20021;-67
2022/01/14 12:10:50;;;;;;;1.90;1.80;;;20.00;56.40;;;;;;5039690;28;20025;-68
2022/01/14 12:13:41;;;;;;;2.45;1.77;;;20.00;56.40;;;;;;5030805;28;20029;-67
2022/01/14 12:16:07;;;;;;;1.85;1.75;;;20.00;56.30;;;;;;5030616;28;20021;-67
2022/01/14 12:18:51;;;;;;;1.67;1.58;;;20.00;56.40;;;;;;5031967;28;20395;-67
2022/01/14 12:21:17;;;;;;;1.83;1.73;;;20.10;56.10;;;;;;5030744;28;20025;-67
2022/01/14 12:23:43;;;;;;;1.85;1.70;;;20.00;56.30;;;;;;5030828;28;20034;-67
2022/01/14 12:26:17;;;;;;;2.33;1.70;;;20.00;56.30;;;;;;5030660;28;20040;-67
2022/01/14 12:28:43;;;;;;;2.00;1.90;;;20.00;56.20;;;;;;5030772;28;20487;-68
2022/01/14 12:31:09;;;;;;;1.80;1.70;;;20.00;56.30;;;;;;5030558;28;20019;-67
2022/01/14 12:33:42;;;;;;;1.65;1.55;;;20.00;56.10;;;;;;5030541;28;20087;-67
2022/01/14 12:36:18;;;;;;;1.92;1.80;;;20.00;56.00;;;;;;5030691;28;20109;-68
2022/01/14 12:38:45;;;;;;;2.00;1.90;;;20.00;56.10;;;;;;5030391;28;20033;-67
2022/01/14 12:41:17;;;;;;;1.70;1.60;;;20.00;56.00;;;;;;5016046;28;20395;-67
2022/01/14 12:43:55;;;;;;;1.60;1.50;;;20.10;56.00;;;;;;5036559;28;20029;-67
2022/01/14 12:46:36;;;;;;;1.80;1.67;;;20.10;55.90;;;;;;5055044;28;20090;-67
2022/01/14 12:49:08;;;;;;;1.70;1.60;;;20.00;56.00;;;;;;5054317;28;20033;-67
2022/01/14 12:51:33;;;;;;;1.93;1.83;;;20.00;56.00;;;;;;5038019;28;20025;-67
2022/01/14 12:54:01;;;;;;;2.50;1.90;;;20.00;56.00;;;;;;5054188;28;20502;-67
2022/01/14 12:56:28;;;;;;;1.85;1.75;;;20.00;55.90;;;;;;5054150;28;20099;-67
2022/01/14 12:59:01;;;;;;;1.80;1.70;;;20.00;55.90;;;;;;5037366;28;20132;-67
2022/01/14 13:01:31;;;;;;;1.63;1.52;;;20.10;56.00;;;;;;5055203;28;20033;-67
2022/01/14 13:03:58;;;;;;;1.70;1.60;;;20.00;55.90;;;;;;5053963;28;20025;-67
2022/01/14 13:06:24;;;;;;;1.70;1.60;;;20.10;56.00;;;;;;5037349;28;20028;-67
2022/01/14 13:08:57;;;;;;;1.67;1.58;;;20.10;55.90;;;;;;5054996;28;20021;-67
2022/01/14 13:11:23;;;;;;;1.80;1.70;;;20.10;55.80;;;;;;5054054;28;20082;-68
2022/01/14 13:14:04;;;;;;;1.70;1.60;;;20.10;55.90;;;;;;5053265;28;20017;-67
2022/01/14 13:16:43;;;;;;;1.55;1.45;;;20.10;55.70;;;;;;5054001;28;20036;-67
2022/01/14 13:19:29;;;;;;;1.88;1.70;;;20.10;55.70;;;;;;5054783;28;20025;-67
2022/01/14 13:21:54;;;;;;;1.70;1.60;;;20.10;55.50;;;;;;5054823;28;20059;-67